Terminal Aerodrome Forecast
Issued by NWS

Home | Current Version | Previous Version | Text Only | Print | Product List | Glossary On
Versions: 1 2 3 4 5 6 7 8 9 10 11 12 13 14 15 16 17 18 19 20 21 22
652
FTUS41 KCAR 121733
TAFBHB
TAF
KBHB 121733Z 1218/1318 29010KT P6SM FEW045
     FM122300 VRB03KT P6SM BKN090
     FM130600 11008KT 2SM -SN OVC050
     FM131200 07010KT 2SM -SN SCT008 OVC012
      AMD LTD TO CLD VIS AND WIND=

USA.gov is the U.S. government's official web portal to all federal, state and local government web resources and services.